Terminal Aerodrome Forecast
Issued by NWS Louisville, KY

Home | Current Version | Previous Version | Text Only | Print | Product List | Glossary On
Versions: 1 2 3 4 5 6 7 8 9 10 11 12
722
FTUS43 KLMK 140520
TAFLEX
TAF
KLEX 140520Z 1406/1506 27018G34KT P6SM OVC035
      TEMPO 1407/1410 BKN025
     FM141000 29013KT P6SM BKN035
     FM141200 30007KT P6SM BKN060
     FM141400 34006KT P6SM BKN090=

USA.gov is the U.S. government's official web portal to all federal, state and local government web resources and services.